Time;durP1;ratioP1;P1;durP2;ratioP2;P2;SDS_P1;SDS_P2;PMS_P1;PMS_P2;Temp;Humidity;BMP_temperature;BMP_pressure;BME280_temperature;BME280_humidity;BME280_pressure;Samples;Min_cycle;Max_cycle;Signal;HPM_P1;HPM_P2
2023/10/25 00:02:16;;;;;;;1.10;0.80;;;20.80;56.50;;;;;;5038155;28;20023;-68
2023/10/25 00:04:41;;;;;;;1.40;0.80;;;20.80;56.50;;;;;;5037332;28;20028;-69
2023/10/25 00:07:07;;;;;;;1.40;0.90;;;20.80;56.50;;;;;;5041564;28;20021;-68
2023/10/25 00:09:33;;;;;;;1.63;0.82;;;20.80;56.50;;;;;;5039071;28;20029;-69
2023/10/25 00:11:59;;;;;;;2.85;0.90;;;20.80;56.50;;;;;;5039940;28;20090;-71
2023/10/25 00:14:24;;;;;;;1.40;0.85;;;20.80;56.50;;;;;;5036620;28;20163;-70
2023/10/25 00:16:50;;;;;;;1.25;0.80;;;20.80;56.50;;;;;;5039556;28;20385;-70
2023/10/25 00:19:16;;;;;;;1.35;0.70;;;20.80;56.50;;;;;;5040605;28;20028;-71
2023/10/25 00:21:41;;;;;;;1.67;0.82;;;20.80;56.50;;;;;;5038276;28;20037;-71
2023/10/25 00:24:07;;;;;;;1.35;0.80;;;20.80;57.10;;;;;;5037949;28;20488;-71
2023/10/25 00:26:33;;;;;;;1.30;0.73;;;20.80;56.50;;;;;;5037956;28;20017;-70
2023/10/25 00:28:59;;;;;;;1.02;0.80;;;20.80;56.50;;;;;;5036399;28;20079;-71
2023/10/25 00:31:25;;;;;;;1.70;0.90;;;20.80;57.10;;;;;;5037950;28;20022;-71
2023/10/25 00:33:51;;;;;;;1.15;0.70;;;20.80;56.50;;;;;;5040882;28;20489;-70
2023/10/25 00:36:17;;;;;;;1.42;0.80;;;20.80;56.50;;;;;;5039583;28;20068;-70
2023/10/25 00:38:43;;;;;;;1.35;0.90;;;20.80;56.50;;;;;;5037908;28;20040;-70
2023/10/25 00:41:09;;;;;;;1.48;1.00;;;20.80;56.60;;;;;;5038472;28;20105;-71
2023/10/25 00:43:35;;;;;;;1.48;1.00;;;20.80;56.60;;;;;;5036161;28;20030;-71
2023/10/25 00:46:22;;;;;;;1.58;0.85;;;20.80;56.60;;;;;;5037446;28;20548;-70
2023/10/25 00:48:49;;;;;;;2.15;1.10;;;20.80;56.60;;;;;;5033610;28;20041;-70
2023/10/25 00:51:18;;;;;;;1.23;0.77;;;20.70;56.50;;;;;;5037518;28;20473;-70
2023/10/25 00:53:49;;;;;;;1.13;0.70;;;20.80;56.60;;;;;;5039136;28;20456;-70
2023/10/25 00:56:16;;;;;;;1.38;0.90;;;20.80;56.60;;;;;;5037430;28;20128;-71
2023/10/25 00:58:44;;;;;;;1.20;0.80;;;20.70;56.50;;;;;;5036592;28;20033;-70
2023/10/25 01:01:14;;;;;;;1.40;0.90;;;20.70;56.50;;;;;;5037764;28;20492;-71
2023/10/25 01:03:40;;;;;;;1.50;0.88;;;20.80;56.60;;;;;;5037142;28;20059;-70
2023/10/25 01:06:05;;;;;;;1.40;0.90;;;20.70;56.50;;;;;;5038419;28;20034;-71
2023/10/25 01:08:31;;;;;;;1.63;0.88;;;20.70;56.50;;;;;;5036264;28;20029;-71
2023/10/25 01:10:57;;;;;;;2.03;1.10;;;20.70;56.50;;;;;;5040470;28;20036;-71
2023/10/25 01:13:23;;;;;;;0.80;0.65;;;20.70;56.50;;;;;;5040634;28;20477;-71
2023/10/25 01:15:49;;;;;;;1.55;0.90;;;20.70;56.50;;;;;;5040415;28;20037;-70
2023/10/25 01:18:15;;;;;;;1.20;0.80;;;20.70;57.00;;;;;;5041175;28;20021;-71
2023/10/25 01:20:42;;;;;;;1.33;0.80;;;20.70;56.50;;;;;;5041300;28;20029;-71
2023/10/25 01:23:07;;;;;;;1.40;1.00;;;20.70;56.50;;;;;;5042043;28;20029;-71
2023/10/25 01:25:33;;;;;;;1.50;0.90;;;20.70;56.50;;;;;;5043323;28;20032;-71
2023/10/25 01:27:59;;;;;;;1.25;0.80;;;20.70;56.50;;;;;;5040208;28;20156;-71
2023/10/25 01:30:25;;;;;;;0.80;0.68;;;20.70;56.50;;;;;;5041683;28;20113;-69
2023/10/25 01:32:52;;;;;;;1.23;0.70;;;20.70;56.50;;;;;;5040228;28;20094;-68
2023/10/25 01:35:17;;;;;;;1.15;0.75;;;20.70;56.50;;;;;;5040734;28;20029;-68
2023/10/25 01:37:43;;;;;;;1.20;0.90;;;20.70;56.60;;;;;;5043073;28;20450;-69
2023/10/25 01:40:10;;;;;;;1.70;0.80;;;20.70;56.60;;;;;;5040679;28;20032;-68
2023/10/25 01:42:35;;;;;;;1.08;0.75;;;20.70;56.50;;;;;;5039910;28;20105;-68
2023/10/25 01:45:01;;;;;;;1.27;0.80;;;20.70;56.50;;;;;;5038654;28;20186;-69
2023/10/25 01:47:27;;;;;;;1.58;0.90;;;20.70;56.60;;;;;;5039921;28;20472;-69
2023/10/25 01:49:53;;;;;;;1.20;0.80;;;20.70;56.50;;;;;;5041323;28;20578;-68
2023/10/25 01:52:19;;;;;;;1.27;0.80;;;20.70;56.50;;;;;;5041752;28;20104;-68
2023/10/25 01:54:50;;;;;;;1.50;0.90;;;20.70;56.50;;;;;;5041097;28;20053;-69
2023/10/25 01:57:18;;;;;;;1.30;0.82;;;20.70;56.50;;;;;;5039956;28;20021;-68
2023/10/25 01:59:47;;;;;;;1.23;0.88;;;20.70;56.50;;;;;;5054210;28;20481;-68
2023/10/25 02:02:13;;;;;;;1.27;0.70;;;20.70;56.60;;;;;;5041321;28;20523;-69
2023/10/25 02:04:39;;;;;;;1.20;0.75;;;20.70;56.60;;;;;;5040793;28;20121;-69
2023/10/25 02:07:05;;;;;;;1.27;0.80;;;20.70;56.60;;;;;;5041260;28;20104;-69
2023/10/25 02:09:31;;;;;;;1.48;0.90;;;20.70;56.60;;;;;;5042313;28;20032;-68
2023/10/25 02:11:56;;;;;;;1.38;0.90;;;20.60;56.50;;;;;;5042951;28;20036;-70
2023/10/25 02:14:22;;;;;;;1.27;0.90;;;20.60;56.50;;;;;;5038096;28;20025;-71
2023/10/25 02:16:48;;;;;;;1.83;0.80;;;20.60;56.50;;;;;;5041534;28;20029;-70
2023/10/25 02:19:17;;;;;;;1.42;0.93;;;20.60;56.50;;;;;;5041678;28;20083;-70
2023/10/25 02:21:43;;;;;;;1.42;0.98;;;20.60;56.50;;;;;;5037552;28;20028;-70
2023/10/25 02:24:14;;;;;;;0.90;0.80;;;20.70;56.60;;;;;;5040083;28;20040;-70
2023/10/25 02:26:40;;;;;;;1.08;0.80;;;20.60;56.50;;;;;;5041036;28;20025;-70
2023/10/25 02:29:06;;;;;;;1.25;0.80;;;20.70;56.60;;;;;;5041108;28;20114;-70
2023/10/25 02:31:36;;;;;;;1.20;0.80;;;20.60;56.50;;;;;;5039175;28;20076;-68
2023/10/25 02:34:02;;;;;;;1.10;0.80;;;20.60;56.50;;;;;;5039480;28;20511;-68
2023/10/25 02:36:29;;;;;;;1.23;0.80;;;20.70;56.60;;;;;;5041736;28;20029;-67
2023/10/25 02:38:54;;;;;;;1.33;0.80;;;20.60;56.60;;;;;;5040428;28;20037;-68
2023/10/25 02:41:20;;;;;;;1.75;0.80;;;20.60;56.60;;;;;;5042239;28;20025;-70
2023/10/25 02:43:46;;;;;;;1.48;0.77;;;20.60;56.50;;;;;;5038758;28;20539;-70
2023/10/25 02:46:12;;;;;;;1.35;0.80;;;20.60;56.50;;;;;;5037655;28;20133;-70
2023/10/25 02:48:40;;;;;;;1.40;0.90;;;20.60;56.60;;;;;;5037750;28;20025;-71
2023/10/25 02:51:07;;;;;;;1.45;0.88;;;20.60;56.60;;;;;;5039563;28;20036;-70
2023/10/25 02:53:32;;;;;;;1.38;0.90;;;20.60;56.60;;;;;;5038966;28;20147;-71
2023/10/25 02:56:02;;;;;;;1.05;0.70;;;20.60;56.50;;;;;;5040768;28;20109;-70
2023/10/25 02:58:28;;;;;;;1.35;0.90;;;20.60;56.50;;;;;;5037336;28;20025;-70
2023/10/25 03:00:56;;;;;;;1.20;0.75;;;20.60;56.50;;;;;;5039251;28;20039;-70
2023/10/25 03:03:29;;;;;;;1.27;0.80;;;20.60;56.60;;;;;;5038028;28;20022;-70
2023/10/25 03:05:55;;;;;;;1.42;0.80;;;20.60;56.60;;;;;;5041101;28;20025;-70
2023/10/25 03:08:21;;;;;;;1.13;0.80;;;20.60;56.60;;;;;;5042354;28;20120;-71
2023/10/25 03:10:46;;;;;;;1.08;0.70;;;20.60;56.60;;;;;;5040503;28;20481;-71
2023/10/25 03:13:12;;;;;;;1.30;0.73;;;20.60;56.60;;;;;;5040364;28;20139;-71
2023/10/25 03:15:37;;;;;;;1.88;0.90;;;20.60;56.60;;;;;;5039804;28;20069;-71
2023/10/25 03:18:03;;;;;;;1.10;0.80;;;20.60;56.60;;;;;;5039988;28;20132;-70
2023/10/25 03:20:29;;;;;;;1.30;0.80;;;20.60;56.60;;;;;;5040804;28;20124;-71
2023/10/25 03:22:56;;;;;;;1.55;0.80;;;20.60;56.60;;;;;;5040205;28;20021;-70
2023/10/25 03:25:21;;;;;;;0.98;0.77;;;20.60;56.60;;;;;;5039526;28;20036;-70
2023/10/25 03:27:47;;;;;;;1.20;0.70;;;20.60;56.60;;;;;;5038901;28;20477;-71
2023/10/25 03:30:13;;;;;;;1.00;0.70;;;20.60;56.60;;;;;;5036571;28;20026;-70
2023/10/25 03:32:38;;;;;;;1.10;0.80;;;20.60;56.60;;;;;;5040837;28;20041;-71
2023/10/25 03:35:05;;;;;;;1.20;0.80;;;20.60;56.60;;;;;;5041477;28;20056;-69
2023/10/25 03:37:31;;;;;;;1.15;0.77;;;20.60;56.60;;;;;;5037770;28;20071;-70
2023/10/25 03:39:56;;;;;;;1.15;0.80;;;20.60;56.60;;;;;;5040343;28;20028;-70
2023/10/25 03:42:22;;;;;;;1.15;0.73;;;20.60;56.60;;;;;;5039302;28;20033;-71
2023/10/25 03:44:48;;;;;;;1.05;0.70;;;20.50;56.50;;;;;;5038698;28;20555;-72
2023/10/25 03:47:13;;;;;;;1.40;0.70;;;20.60;56.60;;;;;;5038409;28;20385;-71
2023/10/25 03:49:39;;;;;;;1.00;0.70;;;20.60;56.50;;;;;;5039425;28;20083;-71
2023/10/25 03:52:05;;;;;;;0.65;0.55;;;20.60;56.50;;;;;;5038724;28;20504;-68
2023/10/25 03:54:30;;;;;;;0.88;0.80;;;20.60;56.60;;;;;;5054180;28;20076;-67
2023/10/25 03:56:56;;;;;;;1.00;0.70;;;20.60;56.60;;;;;;5040547;28;20029;-68
2023/10/25 03:59:22;;;;;;;1.23;0.90;;;20.60;56.60;;;;;;5038531;28;20044;-67
2023/10/25 04:01:48;;;;;;;1.27;0.80;;;20.60;56.60;;;;;;5037209;28;20103;-68
2023/10/25 04:04:13;;;;;;;1.42;0.95;;;20.50;56.60;;;;;;5040096;28;20025;-68
2023/10/25 04:06:39;;;;;;;1.33;0.88;;;20.60;56.70;;;;;;5039443;28;20029;-68
2023/10/25 04:09:05;;;;;;;1.45;0.88;;;20.50;56.70;;;;;;5038283;28;20053;-69
2023/10/25 04:11:30;;;;;;;0.52;0.52;;;20.60;56.80;;;;;;5037531;28;20028;-68
2023/10/25 04:13:56;;;;;;;0.68;0.60;;;20.50;56.70;;;;;;5038621;28;20132;-68
2023/10/25 04:16:21;;;;;;;0.75;0.65;;;20.50;56.80;;;;;;5036824;28;20104;-68
2023/10/25 04:18:47;;;;;;;0.85;0.63;;;20.50;56.80;;;;;;5039677;28;20060;-68
2023/10/25 04:21:13;;;;;;;0.90;0.60;;;20.60;56.80;;;;;;5037925;28;20032;-69
2023/10/25 04:23:39;;;;;;;1.25;0.80;;;20.60;56.80;;;;;;5038341;28;20083;-68
2023/10/25 04:26:09;;;;;;;0.63;0.63;;;20.60;56.80;;;;;;5039437;28;20182;-68
2023/10/25 04:28:34;;;;;;;;;;;20.60;56.80;;;;;;5038630;28;20033;-68
2023/10/25 04:31:01;;;;;;;1.00;0.68;;;20.60;56.80;;;;;;5034537;28;20276;-71
2023/10/25 04:33:26;;;;;;;1.30;0.70;;;20.60;56.80;;;;;;5039966;28;20032;-72
2023/10/25 04:35:52;;;;;;;1.00;0.70;;;20.60;56.80;;;;;;5045856;28;20030;-71
2023/10/25 04:38:18;;;;;;;1.08;0.70;;;20.50;56.70;;;;;;5038960;28;20036;-71
2023/10/25 04:40:43;;;;;;;0.90;0.63;;;20.50;56.70;;;;;;5040537;28;20040;-71
2023/10/25 04:43:09;;;;;;;1.48;0.80;;;20.50;56.70;;;;;;5038507;28;20497;-71
2023/10/25 04:45:35;;;;;;;1.15;0.73;;;20.50;56.70;;;;;;5042733;28;20469;-70
2023/10/25 04:48:01;;;;;;;0.70;0.60;;;20.50;56.70;;;;;;5041328;28;20034;-71
2023/10/25 04:50:32;;;;;;;1.10;0.80;;;20.50;56.70;;;;;;5042858;28;20041;-70
2023/10/25 04:52:58;;;;;;;1.00;0.70;;;20.50;56.70;;;;;;5042445;28;20496;-67
2023/10/25 04:55:26;;;;;;;1.30;0.80;;;20.50;56.80;;;;;;5041593;28;20472;-66
2023/10/25 04:57:51;;;;;;;1.20;0.80;;;20.50;56.80;;;;;;5043327;28;20522;-66
2023/10/25 05:00:17;;;;;;;0.90;0.70;;;20.50;56.80;;;;;;5044084;28;20036;-66
2023/10/25 05:02:43;;;;;;;1.30;0.95;;;20.50;56.80;;;;;;5040865;28;20029;-66
2023/10/25 05:05:09;;;;;;;1.05;0.70;;;20.50;56.80;;;;;;5042863;28;20516;-66
2023/10/25 05:07:37;;;;;;;1.10;0.70;;;20.50;56.80;;;;;;5042568;28;20017;-67
2023/10/25 05:10:04;;;;;;;0.75;0.60;;;20.50;56.80;;;;;;5044109;28;20456;-67
2023/10/25 05:12:46;;;;;;;1.00;0.60;;;20.50;56.80;;;;;;5042047;28;20496;-67
2023/10/25 05:15:14;;;;;;;0.98;0.70;;;20.50;56.80;;;;;;5041560;28;20517;-66
2023/10/25 05:17:42;;;;;;;1.52;0.70;;;20.50;56.80;;;;;;5038180;28;20056;-66
2023/10/25 05:20:09;;;;;;;0.82;0.60;;;20.50;56.80;;;;;;5044112;28;20020;-67
2023/10/25 05:22:37;;;;;;;0.52;0.50;;;20.50;56.80;;;;;;5041043;28;20508;-66
2023/10/25 05:25:04;;;;;;;1.05;0.60;;;20.50;56.80;;;;;;5041280;28;20029;-68
2023/10/25 05:27:29;;;;;;;0.77;0.60;;;20.50;56.90;;;;;;5072639;28;20159;-67
2023/10/25 05:29:59;;;;;;;1.05;0.63;;;20.50;56.90;;;;;;5043078;28;20029;-66
2023/10/25 05:32:28;;;;;;;0.63;0.63;;;20.50;56.90;;;;;;5043128;28;20497;-67
2023/10/25 05:34:53;;;;;;;2.63;0.80;;;20.50;56.90;;;;;;5040926;28;20034;-67
2023/10/25 05:37:19;;;;;;;0.82;0.68;;;20.50;56.90;;;;;;5042111;28;20047;-67
2023/10/25 05:39:45;;;;;;;1.75;0.70;;;20.50;56.80;;;;;;5040955;28;20151;-67
2023/10/25 05:42:18;;;;;;;0.93;0.63;;;20.50;56.90;;;;;;5041682;28;20493;-67
2023/10/25 05:44:44;;;;;;;0.80;0.60;;;20.50;56.90;;;;;;5040677;28;20028;-66
2023/10/25 05:47:09;;;;;;;1.23;0.70;;;20.50;56.80;;;;;;5040631;28;20034;-67
2023/10/25 05:49:35;;;;;;;0.77;0.60;;;20.50;56.80;;;;;;5039628;28;20049;-68
2023/10/25 05:52:01;;;;;;;0.75;0.60;;;20.50;56.90;;;;;;5056435;28;20053;-67
2023/10/25 05:54:27;;;;;;;0.70;0.60;;;20.50;56.90;;;;;;5039199;28;20405;-69
2023/10/25 05:56:53;;;;;;;0.85;0.70;;;20.50;56.80;;;;;;5039738;28;20018;-66
2023/10/25 05:59:18;;;;;;;0.85;0.60;;;20.50;56.80;;;;;;5041089;28;20036;-66
2023/10/25 06:01:55;;;;;;;0.95;0.68;;;20.50;56.90;;;;;;5039202;28;20026;-67
2023/10/25 06:04:23;;;;;;;0.75;0.55;;;20.50;56.80;;;;;;5040591;28;20470;-68
2023/10/25 06:06:49;;;;;;;1.52;0.60;;;20.50;56.80;;;;;;5040704;28;20123;-67
2023/10/25 06:09:15;;;;;;;1.27;0.63;;;20.50;56.80;;;;;;5042548;28;20106;-67
2023/10/25 06:11:41;;;;;;;1.05;0.70;;;20.50;56.80;;;;;;5040778;28;20041;-67
2023/10/25 06:14:08;;;;;;;0.52;0.52;;;20.50;56.80;;;;;;5040283;28;20083;-67
2023/10/25 06:16:34;;;;;;;0.63;0.55;;;20.50;56.80;;;;;;5037754;28;20127;-67
2023/10/25 06:19:00;;;;;;;1.10;0.60;;;20.50;56.80;;;;;;5042878;28;20208;-67
2023/10/25 06:21:26;;;;;;;0.52;0.52;;;20.50;56.80;;;;;;5039842;28;20025;-67
2023/10/25 06:23:52;;;;;;;0.80;0.60;;;20.50;56.80;;;;;;5041199;28;20480;-67
2023/10/25 06:26:18;;;;;;;1.17;0.70;;;20.50;56.80;;;;;;5043372;28;20075;-67
2023/10/25 06:28:44;;;;;;;1.10;0.65;;;20.50;56.80;;;;;;5042271;28;20064;-67
2023/10/25 06:31:11;;;;;;;1.00;0.70;;;20.50;56.80;;;;;;5039138;28;20552;-67
2023/10/25 06:33:36;;;;;;;0.65;0.55;;;20.50;57.20;;;;;;5042068;28;20079;-67
2023/10/25 06:36:03;;;;;;;0.70;0.60;;;20.50;56.80;;;;;;5042966;28;20033;-67
2023/10/25 06:38:28;;;;;;;0.50;0.50;;;20.50;56.80;;;;;;5041629;28;20040;-67
2023/10/25 06:40:54;;;;;;;1.00;0.68;;;20.50;56.80;;;;;;5040927;28;20370;-67
2023/10/25 06:43:20;;;;;;;0.70;0.60;;;20.50;56.80;;;;;;5041361;28;20033;-67
2023/10/25 06:45:46;;;;;;;0.68;0.60;;;20.50;56.80;;;;;;5040893;28;20025;-67
2023/10/25 06:48:12;;;;;;;1.25;0.70;;;20.50;56.80;;;;;;5040244;28;20021;-67
2023/10/25 06:50:38;;;;;;;0.52;0.52;;;20.50;56.80;;;;;;5038236;28;20508;-67
2023/10/25 06:53:04;;;;;;;0.70;0.50;;;20.50;56.80;;;;;;5041422;28;20036;-67
2023/10/25 06:55:30;;;;;;;0.90;0.60;;;20.50;56.80;;;;;;5041787;28;20591;-67
2023/10/25 06:57:57;;;;;;;1.15;0.70;;;20.50;56.80;;;;;;5041172;28;20025;-68
2023/10/25 07:00:23;;;;;;;0.82;0.60;;;20.50;56.80;;;;;;5038022;28;20025;-67
2023/10/25 07:02:53;;;;;;;1.10;0.85;;;20.50;56.80;;;;;;5038674;28;20037;-67
2023/10/25 07:05:23;;;;;;;1.35;0.77;;;20.50;56.80;;;;;;5072886;28;20036;-68
2023/10/25 07:07:51;;;;;;;1.15;0.70;;;20.50;56.80;;;;;;5038343;28;20022;-67
2023/10/25 07:10:17;;;;;;;1.05;0.70;;;20.50;56.80;;;;;;5038991;28;20076;-68
2023/10/25 07:12:45;;;;;;;0.95;0.63;;;20.50;56.80;;;;;;5040102;28;20033;-67
2023/10/25 07:15:11;;;;;;;0.73;0.60;;;20.50;56.80;;;;;;5053945;28;20039;-67
2023/10/25 07:17:41;;;;;;;3.08;0.70;;;20.50;56.80;;;;;;5039463;28;20481;-68
2023/10/25 07:20:09;;;;;;;0.60;0.60;;;20.50;56.80;;;;;;5039452;28;20079;-67
2023/10/25 07:22:35;;;;;;;1.02;0.60;;;20.50;56.70;;;;;;5038172;28;20025;-67
2023/10/25 07:25:02;;;;;;;0.60;0.50;;;20.50;56.80;;;;;;5040132;28;20022;-67
2023/10/25 07:27:28;;;;;;;0.75;0.60;;;20.50;56.80;;;;;;5040173;28;20047;-67
2023/10/25 07:29:53;;;;;;;0.93;0.55;;;20.50;56.80;;;;;;5038485;28;20549;-67
2023/10/25 07:32:19;;;;;;;0.50;0.40;;;20.50;56.70;;;;;;5039359;28;20106;-67
2023/10/25 07:34:45;;;;;;;0.63;0.60;;;20.50;56.80;;;;;;5039962;28;20060;-67
2023/10/25 07:37:11;;;;;;;0.80;0.55;;;20.50;56.80;;;;;;5037124;28;20112;-67
2023/10/25 07:39:36;;;;;;;0.63;0.63;;;20.50;56.80;;;;;;5039530;28;20036;-67
2023/10/25 07:42:03;;;;;;;1.38;0.70;;;20.50;56.80;;;;;;5038184;28;20033;-67
2023/10/25 07:44:28;;;;;;;0.65;0.50;;;20.50;56.80;;;;;;5035609;28;20028;-67
2023/10/25 07:46:54;;;;;;;0.57;0.57;;;20.50;56.80;;;;;;5038292;28;20029;-67
2023/10/25 07:49:20;;;;;;;0.55;0.50;;;20.50;56.80;;;;;;5039484;28;20056;-67
2023/10/25 07:51:45;;;;;;;1.00;0.70;;;20.50;56.80;;;;;;5040194;28;20484;-67
2023/10/25 07:54:11;;;;;;;0.50;0.50;;;20.50;56.80;;;;;;5037964;28;20132;-67
2023/10/25 07:56:37;;;;;;;0.90;0.60;;;20.50;56.80;;;;;;5040543;28;20225;-67
2023/10/25 07:59:03;;;;;;;0.73;0.50;;;20.50;56.80;;;;;;5039448;28;20032;-67
2023/10/25 08:01:28;;;;;;;0.50;0.50;;;20.50;56.80;;;;;;5053048;28;20037;-68
2023/10/25 08:03:54;;;;;;;0.68;0.60;;;20.50;56.80;;;;;;5038143;28;20025;-66
2023/10/25 08:06:20;;;;;;;0.80;0.60;;;20.50;56.80;;;;;;5037978;28;20032;-65
2023/10/25 08:08:48;;;;;;;0.75;0.60;;;20.50;56.80;;;;;;5039227;28;20033;-66
2023/10/25 08:11:14;;;;;;;0.52;0.52;;;20.50;56.80;;;;;;5038973;28;20030;-66
2023/10/25 08:13:42;;;;;;;0.85;0.65;;;20.50;56.80;;;;;;5037698;28;20037;-66
2023/10/25 08:16:08;;;;;;;0.82;0.60;;;20.50;56.80;;;;;;5038914;28;20037;-66
2023/10/25 08:18:35;;;;;;;1.00;0.60;;;20.50;56.80;;;;;;5038230;28;20025;-66
2023/10/25 08:21:01;;;;;;;1.05;0.60;;;20.50;56.80;;;;;;5039550;28;20030;-67
2023/10/25 08:23:28;;;;;;;0.88;0.60;;;20.50;56.80;;;;;;5037187;28;20028;-67
2023/10/25 08:25:54;;;;;;;0.60;0.50;;;20.50;57.30;;;;;;5041232;28;20055;-67
2023/10/25 08:28:20;;;;;;;0.80;0.60;;;20.50;56.80;;;;;;5037886;28;20052;-67
2023/10/25 08:30:47;;;;;;;0.70;0.52;;;20.50;56.80;;;;;;5037304;28;20456;-67
2023/10/25 08:33:12;;;;;;;0.55;0.50;;;20.50;56.80;;;;;;5037332;28;20108;-67
2023/10/25 08:35:38;;;;;;;1.10;0.60;;;20.50;56.80;;;;;;5037144;28;20164;-67
2023/10/25 08:38:07;;;;;;;0.45;0.45;;;20.50;56.80;;;;;;5039532;28;20032;-68
2023/10/25 08:40:33;;;;;;;1.15;0.60;;;20.50;57.30;;;;;;5036896;28;20036;-67
2023/10/25 08:42:59;;;;;;;0.60;0.55;;;20.50;56.80;;;;;;5037779;28;20037;-67
2023/10/25 08:45:25;;;;;;;0.75;0.60;;;20.50;56.80;;;;;;5038935;28;20491;-68
2023/10/25 08:47:52;;;;;;;0.70;0.60;;;20.50;56.80;;;;;;5037515;28;20481;-67
2023/10/25 08:50:21;;;;;;;0.98;0.50;;;20.50;56.80;;;;;;5038464;28;20022;-67
2023/10/25 08:52:50;;;;;;;0.60;0.60;;;20.50;56.80;;;;;;5038317;28;20034;-67
2023/10/25 08:55:18;;;;;;;0.60;0.57;;;20.50;56.80;;;;;;5040174;28;20048;-67
2023/10/25 08:57:44;;;;;;;0.60;0.50;;;20.50;56.80;;;;;;5039090;28;20033;-67
2023/10/25 09:00:13;;;;;;;0.52;0.40;;;20.50;56.80;;;;;;5037448;28;20044;-67
2023/10/25 09:02:39;;;;;;;1.13;0.70;;;20.40;56.70;;;;;;5037690;28;20025;-67
2023/10/25 09:05:09;;;;;;;1.00;0.63;;;20.40;56.80;;;;;;5036560;28;20800;-68
2023/10/25 09:07:36;;;;;;;0.95;0.50;;;20.50;56.80;;;;;;5037109;28;20060;-67
2023/10/25 09:10:15;;;;;;;1.30;0.60;;;20.40;56.80;;;;;;5037685;28;20397;-67
2023/10/25 09:12:41;;;;;;;0.60;0.50;;;20.50;56.80;;;;;;5038468;28;20086;-70
2023/10/25 09:15:07;;;;;;;0.50;0.50;;;20.50;56.80;;;;;;5037350;28;20119;-69
2023/10/25 09:17:34;;;;;;;0.65;0.50;;;20.50;57.30;;;;;;5036368;28;20037;-69
2023/10/25 09:19:59;;;;;;;0.50;0.50;;;20.50;56.80;;;;;;5039534;28;20452;-70
2023/10/25 09:22:27;;;;;;;0.80;0.60;;;20.50;56.80;;;;;;5037770;28;20030;-69
2023/10/25 09:25:03;;;;;;;0.60;0.50;;;20.50;56.80;;;;;;5038577;28;20401;-69
2023/10/25 09:27:30;;;;;;;0.80;0.60;;;20.50;56.80;;;;;;5038934;28;20142;-69
2023/10/25 09:30:11;;;;;;;0.60;0.43;;;20.50;56.80;;;;;;5038504;28;20013;-69
2023/10/25 09:32:37;;;;;;;0.70;0.55;;;20.50;56.80;;;;;;5041205;28;20029;-69
2023/10/25 09:35:04;;;;;;;0.60;0.50;;;20.50;56.80;;;;;;5040513;28;20127;-70
2023/10/25 09:37:29;;;;;;;0.95;0.60;;;20.50;56.80;;;;;;5041815;28;20423;-69
2023/10/25 09:39:55;;;;;;;1.05;0.70;;;20.50;56.80;;;;;;5042534;28;20095;-69
2023/10/25 09:42:26;;;;;;;1.00;0.60;;;20.50;56.80;;;;;;5040970;28;20389;-67
2023/10/25 09:45:01;;;;;;;0.60;0.50;;;20.50;56.80;;;;;;5041233;28;20037;-66
2023/10/25 09:47:29;;;;;;;0.47;0.47;;;20.50;56.80;;;;;;5040812;28;20025;-66
2023/10/25 09:50:10;;;;;;;0.60;0.60;;;20.50;56.80;;;;;;5040018;28;20028;-65
2023/10/25 09:52:39;;;;;;;0.63;0.52;;;20.50;56.80;;;;;;5040362;28;20086;-66
2023/10/25 09:55:18;;;;;;;;;;;20.50;56.80;;;;;;5040239;28;20029;-64
2023/10/25 09:57:46;;;;;;;0.82;0.50;;;20.50;56.80;;;;;;5040331;28;19957;-64
2023/10/25 10:00:12;;;;;;;0.47;0.47;;;20.50;56.80;;;;;;5042009;28;20121;-67
2023/10/25 10:02:58;;;;;;;0.50;0.50;;;20.50;56.80;;;;;;5040992;28;20032;-64
2023/10/25 10:05:43;;;;;;;1.02;0.60;;;20.50;56.80;;;;;;5039272;28;20504;-65
2023/10/25 10:08:16;;;;;;;0.73;0.40;;;20.50;56.80;;;;;;5039816;28;20056;-66
2023/10/25 10:11:01;;;;;;;0.70;0.60;;;20.50;56.80;;;;;;5039946;28;20481;-65
2023/10/25 10:13:27;;;;;;;0.40;0.40;;;20.50;56.90;;;;;;5040399;28;20037;-66
2023/10/25 10:16:11;;;;;;;0.52;0.50;;;20.50;56.90;;;;;;5039659;28;20051;-66
2023/10/25 10:18:38;;;;;;;0.45;0.45;;;20.50;56.90;;;;;;5037844;28;20025;-65
2023/10/25 10:21:06;;;;;;;0.60;0.57;;;20.50;57.00;;;;;;5040198;28;20367;-66
2023/10/25 10:23:38;;;;;;;0.70;0.60;;;20.50;56.90;;;;;;5038934;28;20030;-65
2023/10/25 10:26:04;;;;;;;0.50;0.50;;;20.50;56.90;;;;;;5039874;28;20385;-65
2023/10/25 10:28:46;;;;;;;0.52;0.52;;;20.50;56.90;;;;;;5043119;28;20017;-64
2023/10/25 10:31:13;;;;;;;0.30;0.30;;;20.50;56.90;;;;;;5040034;28;20126;-65
2023/10/25 10:33:46;;;;;;;0.47;0.40;;;20.50;56.90;;;;;;5040279;28;20436;-66
2023/10/25 10:36:25;;;;;;;1.33;0.40;;;20.50;56.90;;;;;;5040546;28;20552;-65
2023/10/25 10:39:11;;;;;;;0.50;0.50;;;20.50;56.90;;;;;;5038034;28;20048;-64
2023/10/25 10:41:38;;;;;;;0.40;0.40;;;20.50;56.90;;;;;;5039231;28;20290;-67
2023/10/25 10:44:04;;;;;;;0.68;0.43;;;20.50;56.90;;;;;;5039930;28;20086;-67
2023/10/25 10:46:30;;;;;;;0.73;0.50;;;20.50;56.80;;;;;;5039476;28;20026;-67
2023/10/25 10:49:01;;;;;;;0.50;0.45;;;20.50;56.80;;;;;;5039368;28;20040;-67
2023/10/25 10:51:30;;;;;;;0.60;0.60;;;20.50;56.80;;;;;;5039287;28;20075;-67
2023/10/25 10:53:55;;;;;;;0.68;0.50;;;20.50;56.90;;;;;;5038281;28;20037;-67
2023/10/25 10:56:21;;;;;;;0.68;0.57;;;20.50;56.80;;;;;;5041821;28;20429;-67
2023/10/25 10:58:47;;;;;;;0.60;0.52;;;20.50;56.80;;;;;;5040919;28;20047;-67
2023/10/25 11:01:13;;;;;;;0.30;0.30;;;20.50;56.80;;;;;;5037778;28;20052;-67
2023/10/25 11:03:40;;;;;;;0.60;0.60;;;20.50;56.80;;;;;;5035808;28;20176;-67
2023/10/25 11:06:06;;;;;;;0.43;0.43;;;20.50;56.80;;;;;;5040808;28;20141;-67
2023/10/25 11:08:32;;;;;;;0.90;0.40;;;20.50;56.80;;;;;;5039704;28;20085;-68
2023/10/25 11:10:58;;;;;;;0.70;0.60;;;20.50;56.80;;;;;;5042605;28;20021;-67
2023/10/25 11:13:24;;;;;;;0.77;0.50;;;20.50;56.80;;;;;;5039295;28;20026;-67
2023/10/25 11:16:00;;;;;;;0.50;0.50;;;20.50;56.80;;;;;;5038008;28;20033;-67
2023/10/25 11:18:26;;;;;;;0.60;0.50;;;20.50;56.80;;;;;;5036752;28;20057;-67
2023/10/25 11:20:52;;;;;;;0.50;0.50;;;20.50;56.80;;;;;;5039707;28;20118;-67
2023/10/25 11:23:18;;;;;;;0.93;0.93;;;20.50;56.80;;;;;;5037160;28;20374;-67
2023/10/25 11:25:44;;;;;;;0.45;0.43;;;20.50;56.80;;;;;;5039577;28;20547;-67
2023/10/25 11:28:11;;;;;;;0.50;0.50;;;20.50;56.80;;;;;;5038255;28;20030;-67
2023/10/25 11:30:40;;;;;;;0.77;0.50;;;20.50;56.80;;;;;;5038231;28;20037;-66
2023/10/25 11:33:06;;;;;;;0.50;0.45;;;20.50;56.80;;;;;;5039979;28;20094;-67
2023/10/25 11:35:33;;;;;;;1.10;0.60;;;20.50;56.80;;;;;;5037255;28;20453;-67
2023/10/25 11:37:59;;;;;;;0.40;0.40;;;20.50;56.80;;;;;;5038756;28;20064;-66
2023/10/25 11:40:42;;;;;;;0.50;0.50;;;20.50;56.80;;;;;;5037362;28;20029;-67
2023/10/25 11:43:08;;;;;;;0.50;0.50;;;20.50;56.80;;;;;;5038752;28;20043;-67
2023/10/25 11:45:37;;;;;;;0.43;0.43;;;20.50;56.80;;;;;;5038337;28;20086;-67
2023/10/25 11:48:04;;;;;;;0.75;0.50;;;20.50;56.80;;;;;;5037747;28;20096;-67
2023/10/25 11:50:30;;;;;;;0.50;0.50;;;20.50;56.80;;;;;;5038152;28;20548;-67
2023/10/25 11:52:56;;;;;;;0.50;0.50;;;20.50;56.80;;;;;;5038801;28;20108;-67
2023/10/25 11:55:21;;;;;;;0.68;0.60;;;20.50;56.80;;;;;;5037927;28;20024;-65
2023/10/25 11:57:47;;;;;;;0.50;0.50;;;20.50;56.80;;;;;;5037559;28;20387;-66
2023/10/25 12:00:13;;;;;;;0.73;0.63;;;20.50;56.80;;;;;;5038853;28;20686;-67
2023/10/25 12:02:39;;;;;;;0.63;0.60;;;20.50;56.80;;;;;;5038167;28;20041;-66
2023/10/25 12:05:05;;;;;;;0.70;0.57;;;20.50;56.80;;;;;;5038287;28;20017;-66
2023/10/25 12:07:31;;;;;;;0.77;0.55;;;20.50;56.80;;;;;;5038782;28;20021;-66
2023/10/25 12:09:57;;;;;;;0.50;0.50;;;20.50;56.80;;;;;;5038627;28;20509;-65
2023/10/25 12:12:23;;;;;;;0.52;0.52;;;20.50;56.80;;;;;;5039201;28;20074;-66
2023/10/25 12:14:50;;;;;;;2.17;0.60;;;20.50;56.90;;;;;;5040399;28;20025;-66
2023/10/25 12:17:16;;;;;;;1.00;0.60;;;20.50;56.90;;;;;;5037457;28;20026;-66
2023/10/25 12:19:42;;;;;;;0.57;0.45;;;20.50;57.00;;;;;;5037404;28;20032;-65
2023/10/25 12:22:12;;;;;;;1.05;0.70;;;20.50;56.90;;;;;;5037857;28;20029;-65
2023/10/25 12:24:39;;;;;;;0.85;0.70;;;20.50;56.90;;;;;;5036222;28;20036;-65
2023/10/25 12:27:07;;;;;;;1.30;0.65;;;20.50;56.90;;;;;;5038522;28;20029;-66
2023/10/25 12:29:33;;;;;;;0.88;0.50;;;20.50;56.90;;;;;;5036711;28;20024;-65
2023/10/25 12:31:59;;;;;;;0.80;0.60;;;20.50;56.90;;;;;;5037410;28;20171;-65
2023/10/25 12:34:25;;;;;;;0.75;0.50;;;20.50;56.90;;;;;;5038030;28;20116;-67
2023/10/25 12:36:50;;;;;;;0.93;0.70;;;20.50;56.90;;;;;;5039256;28;20045;-66
2023/10/25 12:39:17;;;;;;;0.55;0.52;;;20.50;56.90;;;;;;5038010;28;20049;-66
2023/10/25 12:41:44;;;;;;;0.50;0.50;;;20.50;56.90;;;;;;5037565;28;20461;-68
2023/10/25 12:44:09;;;;;;;0.60;0.60;;;20.50;56.90;;;;;;5038233;28;20025;-68
2023/10/25 12:46:35;;;;;;;0.65;0.60;;;20.50;56.90;;;;;;5039709;28;20804;-67
2023/10/25 12:49:01;;;;;;;1.00;0.60;;;20.50;56.90;;;;;;5038207;28;20045;-68